Svitzer Stanlow — MLNF7 — position and weather

sailwx.info

Track history (hours):
 
Tides and Currents Weather Stations Pressure Air Temp Water Temp Dewpoint Dewpoint Depression Visibility Wind Speed Wind Dir Waves Ship Positions

Svitzer Stanlow

Last reported at 2016-Dec-04 23:33 UTC. Time now 2016-Dec-05 00:34 UTC.
Position N 53°23' W 002°60'.

Length 39 m.

Type: Tug. MMSI: 235010620.

Date/timePositionNaut miles runAvg speedWind from/ knotsBaromVisibWave heightAir tempDewpointWater temp
2016-Dec-04 23:33N 53°23' W 002°60'0 0.0
2016-Dec-04 22:33N 53°23' W 002°60'0 0.0
2016-Dec-04 21:30N 53°23' W 002°60'0 0.0
2016-Dec-04 20:33N 53°23' W 002°60'0 0.0
2016-Dec-04 19:33N 53°23' W 002°60'0 0.0
2016-Dec-04 18:33N 53°23' W 002°60'0 0.0
2016-Dec-04 17:30N 53°23' W 002°60'0 0.0
2016-Dec-04 16:33N 53°23' W 002°60'0 0.0
2016-Dec-04 15:33N 53°23' W 002°60'0 0.0
2016-Dec-04 14:33N 53°23' W 002°60'1 0.5
2016-Dec-04 13:33N 53°23' W 003°00'7 7.3
2016-Dec-04 12:33N 53°30' W 003°06'4 3.7
2016-Dec-04 11:33N 53°32' W 003°11'9 9.1
2016-Dec-04 10:33N 53°25' W 003°01'2 2.3
2016-Dec-04 09:33N 53°23' W 002°60'0 0.0
2016-Dec-04 08:33N 53°23' W 002°60'0 0.0
2016-Dec-04 07:33N 53°23' W 002°60'0 0.0
2016-Dec-04 06:33N 53°23' W 002°60'0 0.0
2016-Dec-04 05:33N 53°23' W 002°60'0 0.0
2016-Dec-04 04:33N 53°23' W 002°60'0 0.0
2016-Dec-04 03:33N 53°23' W 002°60'0 0.0
2016-Dec-04 02:33N 53°23' W 002°60'0 0.0
2016-Dec-04 01:33N 53°23' W 002°60'0 0.0
2016-Dec-04 00:33N 53°23' W 002°60'0 0.1
2016-Dec-03 23:32N 53°23' W 002°60'0 0.0
2016-Dec-03 22:32N 53°23' W 002°60'0 0.0
2016-Dec-03 21:32N 53°23' W 002°60'0 0.0
2016-Dec-03 20:32N 53°23' W 002°60'0 0.0
2016-Dec-03 19:32N 53°23' W 002°60'0 0.0
2016-Dec-03 18:32N 53°23' W 002°60'0 0.0
2016-Dec-03 17:32N 53°23' W 002°60'0 0.0
2016-Dec-03 16:32N 53°23' W 002°60'0 0.0
2016-Dec-03 15:32N 53°23' W 002°60'0 0.0
2016-Dec-03 14:32N 53°23' W 002°60'0 0.3
2016-Dec-03 13:31N 53°23' W 003°00'1 1.4
2016-Dec-03 12:33N 53°24' W 003°01'9 8.7
2016-Dec-03 11:33N 53°32' W 003°08'1 0.9
2016-Dec-03 10:33N 53°32' W 003°09'9 9.4
2016-Dec-03 09:33N 53°24' W 003°00'1 1.3
2016-Dec-03 08:30N 53°23' W 003°00'0 0.0
2016-Dec-03 07:33N 53°23' W 003°00'0 0.0
2016-Dec-03 06:33N 53°23' W 003°00'0 0.0
2016-Dec-03 05:30N 53°23' W 003°00'0 0.0
2016-Dec-03 04:33N 53°23' W 003°00'0 0.0
2016-Dec-03 03:33N 53°23' W 003°00'0 0.0
2016-Dec-03 02:30N 53°23' W 003°00'0 0.0
2016-Dec-03 01:33N 53°23' W 003°00'0 0.0
2016-Dec-03 00:33N 53°23' W 003°00'0 0.0
2016-Dec-02 23:33N 53°23' W 003°00'0 0.0
2016-Dec-02 22:33N 53°23' W 003°00'0 0.0
2016-Dec-02 21:33N 53°23' W 003°00'0 0.0
2016-Dec-02 20:33N 53°23' W 003°00'0 0.0
2016-Dec-02 19:33N 53°23' W 003°00'0 0.0
2016-Dec-02 18:33N 53°23' W 003°00'0 0.0
2016-Dec-02 17:33N 53°23' W 003°00'0 0.0
2016-Dec-02 16:33N 53°23' W 003°00'0 0.0
2016-Dec-02 15:30N 53°23' W 003°00'0 0.0
2016-Dec-02 14:29N 53°23' W 003°00'0 0.0
2016-Dec-02 13:29N 53°23' W 003°00'0 0.1
2016-Dec-02 12:28N 53°23' W 002°60'4 4.5
2016-Dec-02 11:33N 53°27' W 003°02'9 9.0
2016-Dec-02 10:33N 53°31' W 003°15'3 3.4
2016-Dec-02 09:33N 53°32' W 003°09'7 6.6
2016-Dec-02 08:31N 53°27' W 003°01'1 1.5
2016-Dec-02 07:33N 53°26' W 003°00'0 0.3
2016-Dec-02 06:30N 53°25' W 003°00'0 0.0
2016-Dec-02 05:30N 53°25' W 003°00'0 0.0
2016-Dec-02 04:33N 53°25' W 003°00'0 0.0
2016-Dec-02 03:27N 53°25' W 003°00'0 0.0
2016-Dec-02 02:33N 53°25' W 003°00'0 0.0
2016-Dec-02 01:27N 53°25' W 003°00'0 0.0
2016-Dec-02 00:33N 53°25' W 003°00'0 0.0
2016-Dec-01 23:33N 53°25' W 003°00'0 0.0
2016-Dec-01 22:33N 53°25' W 003°00'0 0.0
2016-Dec-01 21:33N 53°25' W 003°00'0 0.0
2016-Dec-01 20:33N 53°25' W 003°00'0 0.0
2016-Dec-01 19:33N 53°25' W 003°00'0 0.0
2016-Dec-01 18:33N 53°25' W 003°00'0 0.0
2016-Dec-01 17:33N 53°25' W 003°00'0 0.0
2016-Dec-01 16:33N 53°25' W 003°00'0 0.0
2016-Dec-01 15:33N 53°25' W 003°00'0 0.0
2016-Dec-01 14:33N 53°25' W 003°00'0 0.0
2016-Dec-01 13:27N 53°25' W 003°00'0 0.0
2016-Dec-01 12:33N 53°25' W 003°00'0 0.0
2016-Dec-01 11:27N 53°25' W 003°00'0 0.0
2016-Dec-01 10:30N 53°25' W 003°00'0 0.0
2016-Dec-01 09:33N 53°25' W 003°00'0 0.0
2016-Dec-01 08:30N 53°25' W 003°00'0 0.0
2016-Dec-01 07:33N 53°25' W 003°00'0 0.0
2016-Dec-01 06:33N 53°25' W 003°00'0 0.0
2016-Dec-01 05:33N 53°25' W 003°00'0 0.0
2016-Dec-01 04:33N 53°25' W 003°00'0 0.0
2016-Dec-01 03:33N 53°25' W 003°00'0 0.0
2016-Dec-01 02:33N 53°25' W 003°00'0 0.0
2016-Dec-01 01:33N 53°25' W 003°00'0 0.0
2016-Dec-01 00:27N 53°25' W 003°00'0 0.0
2016-Nov-30 23:33N 53°25' W 003°00'0 0.0
2016-Nov-30 22:33N 53°25' W 003°00'0 0.0
2016-Nov-30 21:29N 53°25' W 003°00'0 0.0
2016-Nov-30 20:32N 53°25' W 003°00'0 0.0
2016-Nov-30 19:29N 53°25' W 003°00'0 0.0
2016-Nov-30 18:32N 53°25' W 003°00'0 0.0
2016-Nov-30 17:32N 53°25' W 003°00'0 0.0
2016-Nov-30 16:29N 53°25' W 003°00'0 0.0
2016-Nov-30 15:32N 53°25' W 003°00'0 0.0
2016-Nov-30 14:32N 53°25' W 003°00'0 0.0
2016-Nov-30 13:29N 53°25' W 003°00'0 0.0
2016-Nov-30 12:29N 53°25' W 003°00'0 0.0
2016-Nov-30 11:29N 53°25' W 003°00'0 0.0
2016-Nov-30 10:32N 53°25' W 003°00'0 0.0
2016-Nov-30 09:29N 53°25' W 003°00'1 1.0
2016-Nov-30 08:32N 53°26' W 003°01'4 3.7
2016-Nov-30 07:33N 53°23' W 002°60'0 0.1
2016-Nov-30 06:32N 53°23' W 003°00'0 0.0
2016-Nov-30 05:29N 53°23' W 003°00'0 0.0
2016-Nov-30 04:29N 53°23' W 003°00'0 0.0
2016-Nov-30 03:32N 53°23' W 003°00'0 0.0
2016-Nov-30 02:32N 53°23' W 003°00'0 0.0
2016-Nov-30 01:23N 53°23' W 003°00'0 0.0
2016-Nov-30 00:29N 53°23' W 003°00'0 0.0
2016-Nov-29 23:32N 53°23' W 003°00'0 0.0
2016-Nov-29 22:32N 53°23' W 003°00'0 0.0
2016-Nov-29 21:32N 53°23' W 003°00'0 0.0
2016-Nov-29 20:32N 53°23' W 003°00'0 0.0
2016-Nov-29 19:32N 53°23' W 003°00'0 0.0
2016-Nov-29 18:32N 53°23' W 003°00'0 0.0
2016-Nov-29 17:32N 53°23' W 003°00'0 0.0
2016-Nov-29 16:32N 53°23' W 003°00'0 0.0
2016-Nov-29 15:23N 53°23' W 003°00'0 0.0
2016-Nov-29 14:32N 53°23' W 003°00'0 0.0
2016-Nov-29 13:32N 53°23' W 003°00'4 4.1
2016-Nov-29 12:33N 53°27' W 003°01'0 0.2
2016-Nov-29 11:32N 53°27' W 003°01'0 0.2
2016-Nov-29 10:33N 53°27' W 003°01'0 0.5
2016-Nov-29 09:33N 53°27' W 003°02'4 3.9
2016-Nov-29 08:32N 53°23' W 003°00'0 0.0
2016-Nov-29 07:32N 53°23' W 003°00'0 0.0
2016-Nov-29 06:32N 53°23' W 003°00'0 0.0
2016-Nov-29 05:32N 53°23' W 003°00'0 0.0
2016-Nov-29 04:29N 53°23' W 003°00'0 0.0
2016-Nov-29 03:32N 53°23' W 003°00'0 0.0
2016-Nov-29 02:29N 53°23' W 003°00'0 0.0
2016-Nov-29 01:32N 53°23' W 003°00'0 0.0
2016-Nov-29 00:29N 53°23' W 003°00'0 0.0
2016-Nov-28 23:32N 53°23' W 003°00'0 0.0
2016-Nov-28 22:32N 53°23' W 003°00'0 0.0
2016-Nov-28 21:29N 53°23' W 003°00'0 0.0
2016-Nov-28 20:29N 53°23' W 003°00'0 0.0
2016-Nov-28 19:32N 53°23' W 003°00'0 0.0
2016-Nov-28 18:26N 53°23' W 003°00'0 0.0
2016-Nov-28 17:32N 53°23' W 003°00'0 0.0
2016-Nov-28 16:29N 53°23' W 003°00'0 0.0
2016-Nov-28 15:32N 53°23' W 003°00'0 0.0
2016-Nov-28 14:32N 53°23' W 003°00'0 0.0
2016-Nov-28 13:32N 53°23' W 003°00'0 0.0
2016-Nov-28 12:32N 53°23' W 003°00'0 0.0
2016-Nov-28 11:26N 53°23' W 003°00'0 0.1
2016-Nov-28 10:33N 53°23' W 002°60'5 4.9
2016-Nov-28 09:33N 53°27' W 003°02'8 7.6
2016-Nov-28 08:33N 53°31' W 003°14'3 3.0
2016-Nov-28 07:33N 53°32' W 003°09'9 8.5
2016-Nov-28 06:33N 53°25' W 003°00'2 2.1
2016-Nov-28 05:33N 53°23' W 002°60'0 0.1
2016-Nov-28 04:32N 53°23' W 002°60'0 0.0
2016-Nov-28 03:32N 53°23' W 002°60'0 0.0
2016-Nov-28 02:23N 53°23' W 002°60'0 0.0
2016-Nov-28 01:32N 53°23' W 002°60'0 0.0
2016-Nov-28 00:32N 53°23' W 002°60'0 0.0
2016-Nov-27 23:26N 53°23' W 002°60'0 0.0
2016-Nov-27 22:32N 53°23' W 002°60'0 0.0
2016-Nov-27 21:29N 53°23' W 002°60'0 0.0
2016-Nov-27 20:32N 53°23' W 002°60'0 0.0
2016-Nov-27 19:29N 53°23' W 002°60'0 0.0
2016-Nov-27 18:23N 53°23' W 002°60'0 0.0
2016-Nov-27 17:32N 53°23' W 002°60'0 0.0
2016-Nov-27 16:29N 53°23' W 002°60'0 0.0
2016-Nov-27 15:29N 53°23' W 002°60'0 0.0
2016-Nov-27 14:32N 53°23' W 002°60'0 0.0
2016-Nov-27 13:32N 53°23' W 002°60'0 0.0
2016-Nov-27 12:31N 53°23' W 002°60'0 0.0
2016-Nov-27 11:25N 53°23' W 002°60'0 0.0
2016-Nov-27 10:22N 53°23' W 002°60'0 0.0
2016-Nov-27 09:31N 53°23' W 002°60'0 0.0
2016-Nov-27 08:22N 53°23' W 002°60'0 0.0
2016-Nov-27 07:31N 53°23' W 002°60'0 0.0
2016-Nov-27 06:31N 53°23' W 002°60'0 0.0
2016-Nov-27 05:28N 53°23' W 002°60'0 0.0
2016-Nov-27 04:25N 53°23' W 002°60'0 0.0
2016-Nov-27 03:31N 53°23' W 002°60'0 0.0
2016-Nov-27 02:31N 53°23' W 002°60'0 0.0
2016-Nov-27 01:31N 53°23' W 002°60'0 0.0
2016-Nov-27 00:25N 53°23' W 002°60'0 0.0
2016-Nov-26 23:31N 53°23' W 002°60'0 0.0
2016-Nov-26 22:31N 53°23' W 002°60'0 0.3
2016-Nov-26 21:28N 53°23' W 003°00'6 6.4
2016-Nov-26 20:33N 53°28' W 003°04'9 9.2
2016-Nov-26 19:33N 53°31' W 003°19'7 7.2
2016-Nov-26 18:33N 53°31' W 003°06'5 5.0
2016-Nov-26 17:32N 53°27' W 003°01'2 1.7
2016-Nov-26 16:33N 53°25' W 003°00'0 0.0
2016-Nov-26 15:33N 53°25' W 003°00'0 0.0
2016-Nov-26 14:33N 53°25' W 003°00'0 0.0
2016-Nov-26 13:33N 53°25' W 003°00'0 0.0
2016-Nov-26 12:33N 53°25' W 003°00'0 0.0
2016-Nov-26 11:30N 53°25' W 003°00'0 0.0
2016-Nov-26 10:33N 53°25' W 003°00'0 0.0
2016-Nov-26 09:33N 53°25' W 003°00'0 0.0
2016-Nov-26 08:33N 53°25' W 003°00'0 0.0
2016-Nov-26 07:33N 53°25' W 003°00'0 0.0
2016-Nov-26 06:33N 53°25' W 003°00'0 0.0
2016-Nov-26 05:30N 53°25' W 003°00'0 0.0
2016-Nov-26 04:30N 53°25' W 003°00'0 0.0
2016-Nov-26 03:33N 53°25' W 003°00'0 0.0
2016-Nov-26 02:33N 53°25' W 003°00'0 0.0
2016-Nov-26 01:33N 53°25' W 003°00'0 0.0
2016-Nov-26 00:30N 53°25' W 003°00'0 0.0
2016-Nov-25 23:33N 53°25' W 003°00'0 0.0
2016-Nov-25 22:33N 53°25' W 003°00'2 1.8
2016-Nov-25 21:31N 53°27' W 003°01'0 0.2
2016-Nov-25 20:31N 53°27' W 003°01'1 0.9
2016-Nov-25 19:29N 53°26' W 003°01'0 0.2
2016-Nov-25 18:31N 53°26' W 003°01'0 0.2
2016-Nov-25 17:32N 53°27' W 003°01'1 1.2
2016-Nov-25 16:33N 53°28' W 003°02'2 2.3
2016-Nov-25 15:32N 53°25' W 003°00'0 0.0
2016-Nov-25 14:32N 53°25' W 003°00'0 0.0
2016-Nov-25 13:32N 53°25' W 003°00'0 0.0
2016-Nov-25 12:32N 53°25' W 003°00'0 0.0
2016-Nov-25 11:20N 53°25' W 003°00'0 0.0
2016-Nov-25 10:32N 53°25' W 003°00'0 0.0
2016-Nov-25 09:32N 53°25' W 003°00'0 0.0
2016-Nov-25 08:32N 53°25' W 003°00'0 0.0
2016-Nov-25 07:32N 53°25' W 003°00'1 1.2
2016-Nov-25 06:33N 53°27' W 003°00'0 0.1
2016-Nov-25 05:32N 53°27' W 003°01'3 3.4
2016-Nov-25 04:33N 53°23' W 003°00'1 0.6
2016-Nov-25 03:33N 53°23' W 002°60'0 0.2
2016-Nov-25 02:33N 53°23' W 003°00'0 0.0
2016-Nov-25 01:33N 53°23' W 003°00'0 0.0
2016-Nov-25 00:33N 53°23' W 003°00'  
Track history (hours):
 
Tides and Currents Weather Stations Pressure Air Temp Water Temp Dewpoint Dewpoint Depression Visibility Wind Speed Wind Dir Waves Ship Positions

Svitzer Stanlow

Last reported at 2016-Dec-04 23:33 UTC. Time now 2016-Dec-05 00:34 UTC.
Position N 53°23' W 002°60'.

Length 39 m.

Type: Tug. MMSI: 235010620.

Date/timePositionNaut miles runAvg speedWind from/ knotsBaromVisibWave heightAir tempDewpointWater temp
2016-Dec-04 23:33N 53°23' W 002°60'0 0.0
2016-Dec-04 22:33N 53°23' W 002°60'0 0.0
2016-Dec-04 21:30N 53°23' W 002°60'0 0.0
2016-Dec-04 20:33N 53°23' W 002°60'0 0.0
2016-Dec-04 19:33N 53°23' W 002°60'0 0.0
2016-Dec-04 18:33N 53°23' W 002°60'0 0.0
2016-Dec-04 17:30N 53°23' W 002°60'0 0.0
2016-Dec-04 16:33N 53°23' W 002°60'0 0.0
2016-Dec-04 15:33N 53°23' W 002°60'0 0.0
2016-Dec-04 14:33N 53°23' W 002°60'1 0.5
2016-Dec-04 13:33N 53°23' W 003°00'7 7.3
2016-Dec-04 12:33N 53°30' W 003°06'4 3.7
2016-Dec-04 11:33N 53°32' W 003°11'9 9.1
2016-Dec-04 10:33N 53°25' W 003°01'2 2.3
2016-Dec-04 09:33N 53°23' W 002°60'0 0.0
2016-Dec-04 08:33N 53°23' W 002°60'0 0.0
2016-Dec-04 07:33N 53°23' W 002°60'0 0.0
2016-Dec-04 06:33N 53°23' W 002°60'0 0.0
2016-Dec-04 05:33N 53°23' W 002°60'0 0.0
2016-Dec-04 04:33N 53°23' W 002°60'0 0.0
2016-Dec-04 03:33N 53°23' W 002°60'0 0.0
2016-Dec-04 02:33N 53°23' W 002°60'0 0.0
2016-Dec-04 01:33N 53°23' W 002°60'0 0.0
2016-Dec-04 00:33N 53°23' W 002°60'0 0.1
2016-Dec-03 23:32N 53°23' W 002°60'0 0.0
2016-Dec-03 22:32N 53°23' W 002°60'0 0.0
2016-Dec-03 21:32N 53°23' W 002°60'0 0.0
2016-Dec-03 20:32N 53°23' W 002°60'0 0.0
2016-Dec-03 19:32N 53°23' W 002°60'0 0.0
2016-Dec-03 18:32N 53°23' W 002°60'0 0.0
2016-Dec-03 17:32N 53°23' W 002°60'0 0.0
2016-Dec-03 16:32N 53°23' W 002°60'0 0.0
2016-Dec-03 15:32N 53°23' W 002°60'0 0.0
2016-Dec-03 14:32N 53°23' W 002°60'0 0.3
2016-Dec-03 13:31N 53°23' W 003°00'1 1.4
2016-Dec-03 12:33N 53°24' W 003°01'9 8.7
2016-Dec-03 11:33N 53°32' W 003°08'1 0.9
2016-Dec-03 10:33N 53°32' W 003°09'9 9.4
2016-Dec-03 09:33N 53°24' W 003°00'1 1.3
2016-Dec-03 08:30N 53°23' W 003°00'0 0.0
2016-Dec-03 07:33N 53°23' W 003°00'0 0.0
2016-Dec-03 06:33N 53°23' W 003°00'0 0.0
2016-Dec-03 05:30N 53°23' W 003°00'0 0.0
2016-Dec-03 04:33N 53°23' W 003°00'0 0.0
2016-Dec-03 03:33N 53°23' W 003°00'0 0.0
2016-Dec-03 02:30N 53°23' W 003°00'0 0.0
2016-Dec-03 01:33N 53°23' W 003°00'0 0.0
2016-Dec-03 00:33N 53°23' W 003°00'0 0.0
2016-Dec-02 23:33N 53°23' W 003°00'0 0.0
2016-Dec-02 22:33N 53°23' W 003°00'0 0.0
2016-Dec-02 21:33N 53°23' W 003°00'0 0.0
2016-Dec-02 20:33N 53°23' W 003°00'0 0.0
2016-Dec-02 19:33N 53°23' W 003°00'0 0.0
2016-Dec-02 18:33N 53°23' W 003°00'0 0.0
2016-Dec-02 17:33N 53°23' W 003°00'0 0.0
2016-Dec-02 16:33N 53°23' W 003°00'0 0.0
2016-Dec-02 15:30N 53°23' W 003°00'0 0.0
2016-Dec-02 14:29N 53°23' W 003°00'0 0.0
2016-Dec-02 13:29N 53°23' W 003°00'0 0.1
2016-Dec-02 12:28N 53°23' W 002°60'4 4.5
2016-Dec-02 11:33N 53°27' W 003°02'9 9.0
2016-Dec-02 10:33N 53°31' W 003°15'3 3.4
2016-Dec-02 09:33N 53°32' W 003°09'7 6.6
2016-Dec-02 08:31N 53°27' W 003°01'1 1.5
2016-Dec-02 07:33N 53°26' W 003°00'0 0.3
2016-Dec-02 06:30N 53°25' W 003°00'0 0.0
2016-Dec-02 05:30N 53°25' W 003°00'0 0.0
2016-Dec-02 04:33N 53°25' W 003°00'0 0.0
2016-Dec-02 03:27N 53°25' W 003°00'0 0.0
2016-Dec-02 02:33N 53°25' W 003°00'0 0.0
2016-Dec-02 01:27N 53°25' W 003°00'0 0.0
2016-Dec-02 00:33N 53°25' W 003°00'0 0.0
2016-Dec-01 23:33N 53°25' W 003°00'0 0.0
2016-Dec-01 22:33N 53°25' W 003°00'0 0.0
2016-Dec-01 21:33N 53°25' W 003°00'0 0.0
2016-Dec-01 20:33N 53°25' W 003°00'0 0.0
2016-Dec-01 19:33N 53°25' W 003°00'0 0.0
2016-Dec-01 18:33N 53°25' W 003°00'0 0.0
2016-Dec-01 17:33N 53°25' W 003°00'0 0.0
2016-Dec-01 16:33N 53°25' W 003°00'0 0.0
2016-Dec-01 15:33N 53°25' W 003°00'0 0.0
2016-Dec-01 14:33N 53°25' W 003°00'0 0.0
2016-Dec-01 13:27N 53°25' W 003°00'0 0.0
2016-Dec-01 12:33N 53°25' W 003°00'0 0.0
2016-Dec-01 11:27N 53°25' W 003°00'0 0.0
2016-Dec-01 10:30N 53°25' W 003°00'0 0.0
2016-Dec-01 09:33N 53°25' W 003°00'0 0.0
2016-Dec-01 08:30N 53°25' W 003°00'0 0.0
2016-Dec-01 07:33N 53°25' W 003°00'0 0.0
2016-Dec-01 06:33N 53°25' W 003°00'0 0.0
2016-Dec-01 05:33N 53°25' W 003°00'0 0.0
2016-Dec-01 04:33N 53°25' W 003°00'0 0.0
2016-Dec-01 03:33N 53°25' W 003°00'0 0.0
2016-Dec-01 02:33N 53°25' W 003°00'0 0.0
2016-Dec-01 01:33N 53°25' W 003°00'0 0.0
2016-Dec-01 00:27N 53°25' W 003°00'0 0.0
2016-Nov-30 23:33N 53°25' W 003°00'0 0.0
2016-Nov-30 22:33N 53°25' W 003°00'0 0.0
2016-Nov-30 21:29N 53°25' W 003°00'0 0.0
2016-Nov-30 20:32N 53°25' W 003°00'0 0.0
2016-Nov-30 19:29N 53°25' W 003°00'0 0.0
2016-Nov-30 18:32N 53°25' W 003°00'0 0.0
2016-Nov-30 17:32N 53°25' W 003°00'0 0.0
2016-Nov-30 16:29N 53°25' W 003°00'0 0.0
2016-Nov-30 15:32N 53°25' W 003°00'0 0.0
2016-Nov-30 14:32N 53°25' W 003°00'0 0.0
2016-Nov-30 13:29N 53°25' W 003°00'0 0.0
2016-Nov-30 12:29N 53°25' W 003°00'0 0.0
2016-Nov-30 11:29N 53°25' W 003°00'0 0.0
2016-Nov-30 10:32N 53°25' W 003°00'0 0.0
2016-Nov-30 09:29N 53°25' W 003°00'1 1.0
2016-Nov-30 08:32N 53°26' W 003°01'4 3.7
2016-Nov-30 07:33N 53°23' W 002°60'0 0.1
2016-Nov-30 06:32N 53°23' W 003°00'0 0.0
2016-Nov-30 05:29N 53°23' W 003°00'0 0.0
2016-Nov-30 04:29N 53°23' W 003°00'0 0.0
2016-Nov-30 03:32N 53°23' W 003°00'0 0.0
2016-Nov-30 02:32N 53°23' W 003°00'0 0.0
2016-Nov-30 01:23N 53°23' W 003°00'0 0.0
2016-Nov-30 00:29N 53°23' W 003°00'0 0.0
2016-Nov-29 23:32N 53°23' W 003°00'0 0.0
2016-Nov-29 22:32N 53°23' W 003°00'0 0.0
2016-Nov-29 21:32N 53°23' W 003°00'0 0.0
2016-Nov-29 20:32N 53°23' W 003°00'0 0.0
2016-Nov-29 19:32N 53°23' W 003°00'0 0.0
2016-Nov-29 18:32N 53°23' W 003°00'0 0.0
2016-Nov-29 17:32N 53°23' W 003°00'0 0.0
2016-Nov-29 16:32N 53°23' W 003°00'0 0.0
2016-Nov-29 15:23N 53°23' W 003°00'0 0.0
2016-Nov-29 14:32N 53°23' W 003°00'0 0.0
2016-Nov-29 13:32N 53°23' W 003°00'4 4.1
2016-Nov-29 12:33N 53°27' W 003°01'0 0.2
2016-Nov-29 11:32N 53°27' W 003°01'0 0.2
2016-Nov-29 10:33N 53°27' W 003°01'0 0.5
2016-Nov-29 09:33N 53°27' W 003°02'4 3.9
2016-Nov-29 08:32N 53°23' W 003°00'0 0.0
2016-Nov-29 07:32N 53°23' W 003°00'0 0.0
2016-Nov-29 06:32N 53°23' W 003°00'0 0.0
2016-Nov-29 05:32N 53°23' W 003°00'0 0.0
2016-Nov-29 04:29N 53°23' W 003°00'0 0.0
2016-Nov-29 03:32N 53°23' W 003°00'0 0.0
2016-Nov-29 02:29N 53°23' W 003°00'0 0.0
2016-Nov-29 01:32N 53°23' W 003°00'0 0.0
2016-Nov-29 00:29N 53°23' W 003°00'0 0.0
2016-Nov-28 23:32N 53°23' W 003°00'0 0.0
2016-Nov-28 22:32N 53°23' W 003°00'0 0.0
2016-Nov-28 21:29N 53°23' W 003°00'0 0.0
2016-Nov-28 20:29N 53°23' W 003°00'0 0.0
2016-Nov-28 19:32N 53°23' W 003°00'0 0.0
2016-Nov-28 18:26N 53°23' W 003°00'0 0.0
2016-Nov-28 17:32N 53°23' W 003°00'0 0.0
2016-Nov-28 16:29N 53°23' W 003°00'0 0.0
2016-Nov-28 15:32N 53°23' W 003°00'0 0.0
2016-Nov-28 14:32N 53°23' W 003°00'0 0.0
2016-Nov-28 13:32N 53°23' W 003°00'0 0.0
2016-Nov-28 12:32N 53°23' W 003°00'0 0.0
2016-Nov-28 11:26N 53°23' W 003°00'0 0.1
2016-Nov-28 10:33N 53°23' W 002°60'5 4.9
2016-Nov-28 09:33N 53°27' W 003°02'8 7.6
2016-Nov-28 08:33N 53°31' W 003°14'3 3.0
2016-Nov-28 07:33N 53°32' W 003°09'9 8.5
2016-Nov-28 06:33N 53°25' W 003°00'2 2.1
2016-Nov-28 05:33N 53°23' W 002°60'0 0.1
2016-Nov-28 04:32N 53°23' W 002°60'0 0.0
2016-Nov-28 03:32N 53°23' W 002°60'0 0.0
2016-Nov-28 02:23N 53°23' W 002°60'0 0.0
2016-Nov-28 01:32N 53°23' W 002°60'0 0.0
2016-Nov-28 00:32N 53°23' W 002°60'0 0.0
2016-Nov-27 23:26N 53°23' W 002°60'0 0.0
2016-Nov-27 22:32N 53°23' W 002°60'0 0.0
2016-Nov-27 21:29N 53°23' W 002°60'0 0.0
2016-Nov-27 20:32N 53°23' W 002°60'0 0.0
2016-Nov-27 19:29N 53°23' W 002°60'0 0.0
2016-Nov-27 18:23N 53°23' W 002°60'0 0.0
2016-Nov-27 17:32N 53°23' W 002°60'0 0.0
2016-Nov-27 16:29N 53°23' W 002°60'0 0.0
2016-Nov-27 15:29N 53°23' W 002°60'0 0.0
2016-Nov-27 14:32N 53°23' W 002°60'0 0.0
2016-Nov-27 13:32N 53°23' W 002°60'0 0.0
2016-Nov-27 12:31N 53°23' W 002°60'0 0.0
2016-Nov-27 11:25N 53°23' W 002°60'0 0.0
2016-Nov-27 10:22N 53°23' W 002°60'0 0.0
2016-Nov-27 09:31N 53°23' W 002°60'0 0.0
2016-Nov-27 08:22N 53°23' W 002°60'0 0.0
2016-Nov-27 07:31N 53°23' W 002°60'0 0.0
2016-Nov-27 06:31N 53°23' W 002°60'0 0.0
2016-Nov-27 05:28N 53°23' W 002°60'0 0.0
2016-Nov-27 04:25N 53°23' W 002°60'0 0.0
2016-Nov-27 03:31N 53°23' W 002°60'0 0.0
2016-Nov-27 02:31N 53°23' W 002°60'0 0.0
2016-Nov-27 01:31N 53°23' W 002°60'0 0.0
2016-Nov-27 00:25N 53°23' W 002°60'0 0.0
2016-Nov-26 23:31N 53°23' W 002°60'0 0.0
2016-Nov-26 22:31N 53°23' W 002°60'0 0.3
2016-Nov-26 21:28N 53°23' W 003°00'6 6.4
2016-Nov-26 20:33N 53°28' W 003°04'9 9.2
2016-Nov-26 19:33N 53°31' W 003°19'7 7.2
2016-Nov-26 18:33N 53°31' W 003°06'5 5.0
2016-Nov-26 17:32N 53°27' W 003°01'2 1.7
2016-Nov-26 16:33N 53°25' W 003°00'0 0.0
2016-Nov-26 15:33N 53°25' W 003°00'0 0.0
2016-Nov-26 14:33N 53°25' W 003°00'0 0.0
2016-Nov-26 13:33N 53°25' W 003°00'0 0.0
2016-Nov-26 12:33N 53°25' W 003°00'0 0.0
2016-Nov-26 11:30N 53°25' W 003°00'0 0.0
2016-Nov-26 10:33N 53°25' W 003°00'0 0.0
2016-Nov-26 09:33N 53°25' W 003°00'0 0.0
2016-Nov-26 08:33N 53°25' W 003°00'0 0.0
2016-Nov-26 07:33N 53°25' W 003°00'0 0.0
2016-Nov-26 06:33N 53°25' W 003°00'0 0.0
2016-Nov-26 05:30N 53°25' W 003°00'0 0.0
2016-Nov-26 04:30N 53°25' W 003°00'0 0.0
2016-Nov-26 03:33N 53°25' W 003°00'0 0.0
2016-Nov-26 02:33N 53°25' W 003°00'0 0.0
2016-Nov-26 01:33N 53°25' W 003°00'0 0.0
2016-Nov-26 00:30N 53°25' W 003°00'0 0.0
2016-Nov-25 23:33N 53°25' W 003°00'0 0.0
2016-Nov-25 22:33N 53°25' W 003°00'2 1.8
2016-Nov-25 21:31N 53°27' W 003°01'0 0.2
2016-Nov-25 20:31N 53°27' W 003°01'1 0.9
2016-Nov-25 19:29N 53°26' W 003°01'0 0.2
2016-Nov-25 18:31N 53°26' W 003°01'0 0.2
2016-Nov-25 17:32N 53°27' W 003°01'1 1.2
2016-Nov-25 16:33N 53°28' W 003°02'2 2.3
2016-Nov-25 15:32N 53°25' W 003°00'0 0.0
2016-Nov-25 14:32N 53°25' W 003°00'0 0.0
2016-Nov-25 13:32N 53°25' W 003°00'0 0.0
2016-Nov-25 12:32N 53°25' W 003°00'0 0.0
2016-Nov-25 11:20N 53°25' W 003°00'0 0.0
2016-Nov-25 10:32N 53°25' W 003°00'0 0.0
2016-Nov-25 09:32N 53°25' W 003°00'0 0.0
2016-Nov-25 08:32N 53°25' W 003°00'0 0.0
2016-Nov-25 07:32N 53°25' W 003°00'1 1.2
2016-Nov-25 06:33N 53°27' W 003°00'0 0.1
2016-Nov-25 05:32N 53°27' W 003°01'3 3.4
2016-Nov-25 04:33N 53°23' W 003°00'1 0.6
2016-Nov-25 03:33N 53°23' W 002°60'0 0.2
2016-Nov-25 02:33N 53°23' W 003°00'0 0.0
2016-Nov-25 01:33N 53°23' W 003°00'0 0.0
2016-Nov-25 00:33N 53°23' W 003°00'  

Dump ship's entire track history